Terminal Aerodrome Forecast
Issued by NWS

Home | Current Version | Previous Version | Text Only | Print | Product List | Glossary On
Versions: 1 2 3 4 5 6 7 8 9 10 11 12 13 14 15 16 17 18 19 20 21 22 23
000
FTUS43 KAPX 172158 AAC
TAFAPN
TAF AMD
KAPN 172158Z 1722/1818 06009KT 1SM BR OVC004
     FM180000 02005KT 2SM BR OVC005
     FM180600 32004KT 4SM BR OVC003
     FM181000 VRB03KT 4SM BR OVC008
     FM181400 26005KT P6SM BKN003
     FM181500 25005KT P6SM SCT015=

USA.gov is the U.S. government's official web portal to all federal, state and local government web resources and services.